Portada
METAR-TAF:

METAR-TAF

Aeropuertos :

Öskemen, Kazajistán

latitud: 50-02-10N, longitud: 082-29-39E, altitud: 286 m

Observación

El informe se hizo hace 38 minutos, a las 23:30 UTC
Viento 2 kt del noreste
Temperatura 14°C
Humedad 88%
Presión 1004 hPa
Visibilidad 10 km o más

METAR: UASK 212330Z 04001MPS 9999 NSC 14/12 Q1004 NOSIG RMK QFE728/0970

Hora: 06:08 (00:08 UTC)

Pronóstico

El informe se hizo hace 1 hora y 7 minutos, a las 23:01 UTC
Pronóstico válido del 22 a las 00 UTC al 22 a las 09 UTC
Viento 6 kt del este-sureste
Visibilidad 10 km o más

TAF: UASK 212301Z 2200/2209 11003MPS 9999 NSC

Observaciones y pronósticos meteorológicos de más de 4000 aeropuertos (mensajes METAR y TAF).

Los puntos amarillos y rojos representan las estaciones disponibles.

Ponga el ratón en el punto deseado para ver el nombre de la estación.

Haga clic para ver las observaciones y los pronósticos meteorológicos.

Para cambiar el mapa : haga clic en los botones verdes con una cruz de color negro para hacer un zoom, en el botón verde con un guión para alejar o en las flechas verdes para mapas adyacentes.


METAR-TAF: